sensor_id;sensor_type;location;lat;lon;timestamp;P1;durP1;ratioP1;P2;durP2;ratioP2
315;SDS011;14128;48.686;9.738;2022-09-09T00:00:11;2.43;;;1.57;;
315;SDS011;14128;48.686;9.738;2022-09-09T00:02:39;3.00;;;1.67;;
315;SDS011;14128;48.686;9.738;2022-09-09T00:05:14;6.93;;;1.90;;
315;SDS011;14128;48.686;9.738;2022-09-09T00:07:48;2.90;;;1.23;;
315;SDS011;14128;48.686;9.738;2022-09-09T00:10:19;3.80;;;1.50;;
315;SDS011;14128;48.686;9.738;2022-09-09T00:12:55;4.07;;;2.00;;
315;SDS011;14128;48.686;9.738;2022-09-09T00:15:28;1.50;;;1.30;;
315;SDS011;14128;48.686;9.738;2022-09-09T00:18:01;3.80;;;1.30;;
315;SDS011;14128;48.686;9.738;2022-09-09T00:20:38;5.93;;;1.60;;
315;SDS011;14128;48.686;9.738;2022-09-09T00:23:11;2.03;;;1.10;;
315;SDS011;14128;48.686;9.738;2022-09-09T00:25:42;3.20;;;1.57;;
315;SDS011;14128;48.686;9.738;2022-09-09T00:28:17;1.67;;;1.07;;
315;SDS011;14128;48.686;9.738;2022-09-09T00:30:46;3.27;;;1.60;;
315;SDS011;14128;48.686;9.738;2022-09-09T00:33:14;1.80;;;1.20;;
315;SDS011;14128;48.686;9.738;2022-09-09T00:35:49;1.60;;;1.20;;
315;SDS011;14128;48.686;9.738;2022-09-09T00:38:18;6.43;;;1.47;;
315;SDS011;14128;48.686;9.738;2022-09-09T00:40:49;2.53;;;1.40;;
315;SDS011;14128;48.686;9.738;2022-09-09T00:43:24;1.10;;;1.00;;
315;SDS011;14128;48.686;9.738;2022-09-09T00:45:59;2.47;;;1.60;;
315;SDS011;14128;48.686;9.738;2022-09-09T00:48:46;3.40;;;1.10;;
315;SDS011;14128;48.686;9.738;2022-09-09T00:51:22;3.13;;;1.40;;
315;SDS011;14128;48.686;9.738;2022-09-09T00:54:00;2.13;;;1.30;;
315;SDS011;14128;48.686;9.738;2022-09-09T00:56:38;5.67;;;1.90;;
315;SDS011;14128;48.686;9.738;2022-09-09T00:59:16;3.20;;;3.00;;
315;SDS011;14128;48.686;9.738;2022-09-09T01:01:50;5.83;;;1.87;;
315;SDS011;14128;48.686;9.738;2022-09-09T01:04:20;1.73;;;1.30;;
315;SDS011;14128;48.686;9.738;2022-09-09T01:06:58;3.80;;;1.40;;
315;SDS011;14128;48.686;9.738;2022-09-09T01:09:38;4.40;;;1.63;;
315;SDS011;14128;48.686;9.738;2022-09-09T01:12:15;2.33;;;1.03;;
315;SDS011;14128;48.686;9.738;2022-09-09T01:14:43;3.57;;;1.30;;
315;SDS011;14128;48.686;9.738;2022-09-09T01:17:17;1.80;;;1.10;;
315;SDS011;14128;48.686;9.738;2022-09-09T01:19:53;3.53;;;1.03;;
315;SDS011;14128;48.686;9.738;2022-09-09T01:22:33;2.30;;;1.23;;
315;SDS011;14128;48.686;9.738;2022-09-09T01:25:15;3.10;;;1.83;;
315;SDS011;14128;48.686;9.738;2022-09-09T01:27:50;2.47;;;1.80;;
315;SDS011;14128;48.686;9.738;2022-09-09T01:30:19;1.47;;;0.70;;
315;SDS011;14128;48.686;9.738;2022-09-09T01:32:49;1.80;;;1.07;;
315;SDS011;14128;48.686;9.738;2022-09-09T01:35:21;2.43;;;1.50;;
315;SDS011;14128;48.686;9.738;2022-09-09T01:38:05;1.47;;;0.80;;
315;SDS011;14128;48.686;9.738;2022-09-09T01:40:32;2.40;;;1.20;;
315;SDS011;14128;48.686;9.738;2022-09-09T01:43:01;4.73;;;1.23;;
315;SDS011;14128;48.686;9.738;2022-09-09T01:45:28;2.33;;;1.40;;
315;SDS011;14128;48.686;9.738;2022-09-09T01:47:56;5.60;;;1.63;;
315;SDS011;14128;48.686;9.738;2022-09-09T01:50:23;3.03;;;1.33;;
315;SDS011;14128;48.686;9.738;2022-09-09T01:52:50;5.70;;;1.37;;
315;SDS011;14128;48.686;9.738;2022-09-09T01:55:23;2.30;;;1.20;;
315;SDS011;14128;48.686;9.738;2022-09-09T01:57:57;2.70;;;0.90;;
315;SDS011;14128;48.686;9.738;2022-09-09T02:00:36;1.97;;;1.00;;
315;SDS011;14128;48.686;9.738;2022-09-09T02:03:12;3.70;;;1.30;;
315;SDS011;14128;48.686;9.738;2022-09-09T02:05:48;2.87;;;1.47;;
315;SDS011;14128;48.686;9.738;2022-09-09T02:08:20;2.50;;;1.20;;
315;SDS011;14128;48.686;9.738;2022-09-09T02:10:50;3.30;;;1.30;;
315;SDS011;14128;48.686;9.738;2022-09-09T02:13:23;2.60;;;1.50;;
315;SDS011;14128;48.686;9.738;2022-09-09T02:15:52;6.50;;;1.17;;
315;SDS011;14128;48.686;9.738;2022-09-09T02:18:23;4.67;;;1.40;;
315;SDS011;14128;48.686;9.738;2022-09-09T02:20:53;3.10;;;1.10;;
315;SDS011;14128;48.686;9.738;2022-09-09T02:23:22;2.30;;;1.40;;
315;SDS011;14128;48.686;9.738;2022-09-09T02:25:50;2.70;;;1.40;;
315;SDS011;14128;48.686;9.738;2022-09-09T02:28:19;2.07;;;1.20;;
315;SDS011;14128;48.686;9.738;2022-09-09T02:30:51;2.03;;;1.40;;
315;SDS011;14128;48.686;9.738;2022-09-09T02:33:21;2.00;;;1.10;;
315;SDS011;14128;48.686;9.738;2022-09-09T02:35:51;3.40;;;1.57;;
315;SDS011;14128;48.686;9.738;2022-09-09T02:38:21;2.83;;;1.60;;
315;SDS011;14128;48.686;9.738;2022-09-09T02:40:52;2.53;;;1.17;;
315;SDS011;14128;48.686;9.738;2022-09-09T02:43:19;3.03;;;1.10;;
315;SDS011;14128;48.686;9.738;2022-09-09T02:45:48;5.17;;;1.50;;
315;SDS011;14128;48.686;9.738;2022-09-09T02:48:26;3.80;;;1.93;;
315;SDS011;14128;48.686;9.738;2022-09-09T02:51:00;5.47;;;1.80;;
315;SDS011;14128;48.686;9.738;2022-09-09T02:53:36;1.27;;;1.23;;
315;SDS011;14128;48.686;9.738;2022-09-09T02:56:12;2.07;;;1.37;;
315;SDS011;14128;48.686;9.738;2022-09-09T02:58:41;6.80;;;1.50;;
315;SDS011;14128;48.686;9.738;2022-09-09T03:01:10;2.00;;;1.30;;
315;SDS011;14128;48.686;9.738;2022-09-09T03:03:37;3.90;;;1.93;;
315;SDS011;14128;48.686;9.738;2022-09-09T03:06:06;3.83;;;1.70;;
315;SDS011;14128;48.686;9.738;2022-09-09T03:08:33;3.90;;;1.43;;
315;SDS011;14128;48.686;9.738;2022-09-09T03:11:00;2.97;;;1.50;;
315;SDS011;14128;48.686;9.738;2022-09-09T03:13:27;4.10;;;1.87;;
315;SDS011;14128;48.686;9.738;2022-09-09T03:15:54;1.90;;;1.27;;
315;SDS011;14128;48.686;9.738;2022-09-09T03:18:22;2.13;;;1.47;;
315;SDS011;14128;48.686;9.738;2022-09-09T03:20:50;3.90;;;1.63;;
315;SDS011;14128;48.686;9.738;2022-09-09T03:23:19;1.33;;;1.03;;
315;SDS011;14128;48.686;9.738;2022-09-09T03:25:46;4.30;;;1.73;;
315;SDS011;14128;48.686;9.738;2022-09-09T03:28:14;5.60;;;1.50;;
315;SDS011;14128;48.686;9.738;2022-09-09T03:30:41;3.30;;;1.40;;
315;SDS011;14128;48.686;9.738;2022-09-09T03:33:08;1.83;;;1.20;;
315;SDS011;14128;48.686;9.738;2022-09-09T03:35:36;4.40;;;1.70;;
315;SDS011;14128;48.686;9.738;2022-09-09T03:38:03;2.53;;;1.13;;
315;SDS011;14128;48.686;9.738;2022-09-09T03:40:29;4.00;;;1.30;;
315;SDS011;14128;48.686;9.738;2022-09-09T03:42:57;1.93;;;1.27;;
315;SDS011;14128;48.686;9.738;2022-09-09T03:45:24;2.60;;;1.43;;
315;SDS011;14128;48.686;9.738;2022-09-09T03:47:51;3.60;;;1.10;;
315;SDS011;14128;48.686;9.738;2022-09-09T03:50:18;2.90;;;1.50;;
315;SDS011;14128;48.686;9.738;2022-09-09T03:52:46;1.97;;;1.67;;
315;SDS011;14128;48.686;9.738;2022-09-09T03:55:13;2.67;;;1.43;;
315;SDS011;14128;48.686;9.738;2022-09-09T03:57:40;1.50;;;1.23;;
315;SDS011;14128;48.686;9.738;2022-09-09T04:00:07;6.50;;;2.70;;
315;SDS011;14128;48.686;9.738;2022-09-09T04:02:35;5.60;;;1.80;;
315;SDS011;14128;48.686;9.738;2022-09-09T04:05:01;3.97;;;1.37;;
315;SDS011;14128;48.686;9.738;2022-09-09T04:07:28;1.83;;;1.60;;
315;SDS011;14128;48.686;9.738;2022-09-09T04:09:56;2.60;;;1.70;;
315;SDS011;14128;48.686;9.738;2022-09-09T04:12:23;4.67;;;1.87;;
315;SDS011;14128;48.686;9.738;2022-09-09T04:14:50;3.40;;;1.47;;
315;SDS011;14128;48.686;9.738;2022-09-09T04:17:17;6.03;;;1.63;;
315;SDS011;14128;48.686;9.738;2022-09-09T04:19:43;3.30;;;1.73;;
315;SDS011;14128;48.686;9.738;2022-09-09T04:22:11;2.40;;;1.50;;
315;SDS011;14128;48.686;9.738;2022-09-09T04:24:38;5.13;;;2.13;;
315;SDS011;14128;48.686;9.738;2022-09-09T04:27:06;3.10;;;1.50;;
315;SDS011;14128;48.686;9.738;2022-09-09T04:29:33;4.70;;;1.77;;
315;SDS011;14128;48.686;9.738;2022-09-09T04:32:00;3.67;;;1.87;;
315;SDS011;14128;48.686;9.738;2022-09-09T04:34:27;1.80;;;1.70;;
315;SDS011;14128;48.686;9.738;2022-09-09T04:36:54;3.47;;;1.70;;
315;SDS011;14128;48.686;9.738;2022-09-09T04:39:21;4.10;;;1.53;;
315;SDS011;14128;48.686;9.738;2022-09-09T04:41:48;2.40;;;1.20;;
315;SDS011;14128;48.686;9.738;2022-09-09T04:44:17;7.53;;;1.80;;
315;SDS011;14128;48.686;9.738;2022-09-09T04:46:44;3.17;;;1.40;;
315;SDS011;14128;48.686;9.738;2022-09-09T04:49:10;3.87;;;1.37;;
315;SDS011;14128;48.686;9.738;2022-09-09T04:51:37;2.87;;;0.97;;
315;SDS011;14128;48.686;9.738;2022-09-09T04:54:04;3.93;;;1.40;;
315;SDS011;14128;48.686;9.738;2022-09-09T04:56:32;2.73;;;2.30;;
315;SDS011;14128;48.686;9.738;2022-09-09T04:58:58;2.10;;;1.33;;
315;SDS011;14128;48.686;9.738;2022-09-09T05:01:29;3.30;;;2.30;;
315;SDS011;14128;48.686;9.738;2022-09-09T05:03:57;3.33;;;1.83;;
315;SDS011;14128;48.686;9.738;2022-09-09T05:06:23;3.40;;;1.53;;
315;SDS011;14128;48.686;9.738;2022-09-09T05:08:51;3.60;;;2.07;;
315;SDS011;14128;48.686;9.738;2022-09-09T05:11:19;3.20;;;1.47;;
315;SDS011;14128;48.686;9.738;2022-09-09T05:13:48;5.33;;;1.77;;
315;SDS011;14128;48.686;9.738;2022-09-09T05:16:15;5.73;;;1.70;;
315;SDS011;14128;48.686;9.738;2022-09-09T05:18:44;1.13;;;1.03;;
315;SDS011;14128;48.686;9.738;2022-09-09T05:21:11;2.23;;;1.53;;
315;SDS011;14128;48.686;9.738;2022-09-09T05:23:39;2.73;;;1.77;;
315;SDS011;14128;48.686;9.738;2022-09-09T05:26:07;4.33;;;1.90;;
315;SDS011;14128;48.686;9.738;2022-09-09T05:28:38;5.90;;;2.00;;
315;SDS011;14128;48.686;9.738;2022-09-09T05:31:05;1.77;;;1.73;;
315;SDS011;14128;48.686;9.738;2022-09-09T05:33:34;7.03;;;2.20;;
315;SDS011;14128;48.686;9.738;2022-09-09T05:36:03;2.37;;;1.80;;
315;SDS011;14128;48.686;9.738;2022-09-09T05:38:33;4.33;;;1.80;;
315;SDS011;14128;48.686;9.738;2022-09-09T05:41:01;3.10;;;1.60;;
315;SDS011;14128;48.686;9.738;2022-09-09T05:43:28;3.60;;;1.67;;
315;SDS011;14128;48.686;9.738;2022-09-09T05:46:00;5.93;;;2.00;;
315;SDS011;14128;48.686;9.738;2022-09-09T05:48:29;4.93;;;1.70;;
315;SDS011;14128;48.686;9.738;2022-09-09T05:50:57;3.03;;;1.50;;
315;SDS011;14128;48.686;9.738;2022-09-09T05:53:25;2.73;;;1.50;;
315;SDS011;14128;48.686;9.738;2022-09-09T05:55:58;3.03;;;1.70;;
315;SDS011;14128;48.686;9.738;2022-09-09T05:58:26;4.50;;;1.63;;
315;SDS011;14128;48.686;9.738;2022-09-09T06:00:59;3.90;;;1.80;;
315;SDS011;14128;48.686;9.738;2022-09-09T06:03:27;2.90;;;1.47;;
315;SDS011;14128;48.686;9.738;2022-09-09T06:05:56;2.63;;;1.53;;
315;SDS011;14128;48.686;9.738;2022-09-09T06:08:26;2.70;;;1.43;;
315;SDS011;14128;48.686;9.738;2022-09-09T06:10:53;4.47;;;1.53;;
315;SDS011;14128;48.686;9.738;2022-09-09T06:13:21;4.33;;;1.40;;
315;SDS011;14128;48.686;9.738;2022-09-09T06:15:49;1.60;;;1.30;;
315;SDS011;14128;48.686;9.738;2022-09-09T06:18:17;6.63;;;2.00;;
315;SDS011;14128;48.686;9.738;2022-09-09T06:20:52;4.57;;;1.30;;
315;SDS011;14128;48.686;9.738;2022-09-09T06:23:20;3.30;;;1.50;;
315;SDS011;14128;48.686;9.738;2022-09-09T06:25:48;5.03;;;1.40;;
315;SDS011;14128;48.686;9.738;2022-09-09T06:28:15;5.20;;;1.63;;
315;SDS011;14128;48.686;9.738;2022-09-09T06:30:42;1.30;;;1.20;;
315;SDS011;14128;48.686;9.738;2022-09-09T06:33:09;4.43;;;1.30;;
315;SDS011;14128;48.686;9.738;2022-09-09T06:35:36;4.63;;;1.23;;
315;SDS011;14128;48.686;9.738;2022-09-09T06:38:03;2.47;;;2.03;;
315;SDS011;14128;48.686;9.738;2022-09-09T06:40:30;3.00;;;1.40;;
315;SDS011;14128;48.686;9.738;2022-09-09T06:43:00;4.37;;;1.50;;
315;SDS011;14128;48.686;9.738;2022-09-09T06:45:27;4.33;;;1.60;;
315;SDS011;14128;48.686;9.738;2022-09-09T06:47:54;2.93;;;1.30;;
315;SDS011;14128;48.686;9.738;2022-09-09T06:50:22;2.93;;;1.30;;
315;SDS011;14128;48.686;9.738;2022-09-09T06:52:48;3.23;;;1.27;;
315;SDS011;14128;48.686;9.738;2022-09-09T06:55:16;2.33;;;1.40;;
315;SDS011;14128;48.686;9.738;2022-09-09T06:57:44;3.07;;;1.63;;
315;SDS011;14128;48.686;9.738;2022-09-09T07:00:13;5.50;;;0.97;;
315;SDS011;14128;48.686;9.738;2022-09-09T07:02:40;2.97;;;1.37;;
315;SDS011;14128;48.686;9.738;2022-09-09T07:05:07;3.03;;;2.00;;
315;SDS011;14128;48.686;9.738;2022-09-09T07:07:35;2.43;;;1.10;;
315;SDS011;14128;48.686;9.738;2022-09-09T07:10:02;3.00;;;1.50;;
315;SDS011;14128;48.686;9.738;2022-09-09T07:12:30;1.43;;;0.90;;
315;SDS011;14128;48.686;9.738;2022-09-09T07:14:57;3.13;;;1.20;;
315;SDS011;14128;48.686;9.738;2022-09-09T07:17:25;1.87;;;1.40;;
315;SDS011;14128;48.686;9.738;2022-09-09T07:19:53;1.90;;;1.10;;
315;SDS011;14128;48.686;9.738;2022-09-09T07:22:20;2.70;;;1.00;;
315;SDS011;14128;48.686;9.738;2022-09-09T07:24:47;8.03;;;1.50;;
315;SDS011;14128;48.686;9.738;2022-09-09T07:27:14;4.00;;;1.90;;
315;SDS011;14128;48.686;9.738;2022-09-09T07:29:41;2.80;;;1.07;;
315;SDS011;14128;48.686;9.738;2022-09-09T07:32:08;3.00;;;1.40;;
315;SDS011;14128;48.686;9.738;2022-09-09T07:34:36;3.23;;;1.17;;
315;SDS011;14128;48.686;9.738;2022-09-09T07:37:03;2.70;;;1.17;;
315;SDS011;14128;48.686;9.738;2022-09-09T07:39:30;3.63;;;1.10;;
315;SDS011;14128;48.686;9.738;2022-09-09T07:41:57;1.80;;;1.23;;
315;SDS011;14128;48.686;9.738;2022-09-09T07:44:24;4.07;;;1.20;;
315;SDS011;14128;48.686;9.738;2022-09-09T07:46:51;4.90;;;1.10;;
315;SDS011;14128;48.686;9.738;2022-09-09T07:49:18;3.60;;;1.10;;
315;SDS011;14128;48.686;9.738;2022-09-09T07:51:47;4.17;;;1.50;;
315;SDS011;14128;48.686;9.738;2022-09-09T07:54:15;1.63;;;1.03;;
315;SDS011;14128;48.686;9.738;2022-09-09T07:56:45;4.70;;;1.40;;
315;SDS011;14128;48.686;9.738;2022-09-09T07:59:12;1.17;;;0.90;;
315;SDS011;14128;48.686;9.738;2022-09-09T08:01:40;2.73;;;0.87;;
315;SDS011;14128;48.686;9.738;2022-09-09T08:04:08;5.30;;;1.13;;
315;SDS011;14128;48.686;9.738;2022-09-09T08:06:42;3.03;;;0.90;;
315;SDS011;14128;48.686;9.738;2022-09-09T08:09:12;2.03;;;1.13;;
315;SDS011;14128;48.686;9.738;2022-09-09T08:11:40;5.33;;;1.40;;
315;SDS011;14128;48.686;9.738;2022-09-09T08:14:08;4.63;;;1.30;;
315;SDS011;14128;48.686;9.738;2022-09-09T08:16:36;3.93;;;1.20;;
315;SDS011;14128;48.686;9.738;2022-09-09T08:19:05;2.13;;;0.87;;
315;SDS011;14128;48.686;9.738;2022-09-09T08:21:33;4.87;;;0.83;;
315;SDS011;14128;48.686;9.738;2022-09-09T08:24:02;3.03;;;0.97;;
315;SDS011;14128;48.686;9.738;2022-09-09T08:26:31;2.13;;;1.20;;
315;SDS011;14128;48.686;9.738;2022-09-09T08:29:00;3.30;;;0.93;;
315;SDS011;14128;48.686;9.738;2022-09-09T08:31:28;2.40;;;0.90;;
315;SDS011;14128;48.686;9.738;2022-09-09T08:33:57;3.80;;;1.00;;
315;SDS011;14128;48.686;9.738;2022-09-09T08:36:25;1.07;;;0.83;;
315;SDS011;14128;48.686;9.738;2022-09-09T08:38:54;3.27;;;1.20;;
315;SDS011;14128;48.686;9.738;2022-09-09T08:41:28;3.30;;;0.87;;
315;SDS011;14128;48.686;9.738;2022-09-09T08:44:10;4.40;;;2.20;;
315;SDS011;14128;48.686;9.738;2022-09-09T08:46:44;3.93;;;0.87;;
315;SDS011;14128;48.686;9.738;2022-09-09T08:49:29;4.80;;;0.87;;
315;SDS011;14128;48.686;9.738;2022-09-09T08:52:08;5.33;;;1.10;;
315;SDS011;14128;48.686;9.738;2022-09-09T08:54:43;2.00;;;0.80;;
315;SDS011;14128;48.686;9.738;2022-09-09T08:57:13;2.10;;;1.23;;
315;SDS011;14128;48.686;9.738;2022-09-09T08:59:44;5.13;;;1.27;;
315;SDS011;14128;48.686;9.738;2022-09-09T09:02:14;2.50;;;1.10;;
315;SDS011;14128;48.686;9.738;2022-09-09T09:04:47;3.43;;;1.20;;
315;SDS011;14128;48.686;9.738;2022-09-09T09:07:28;2.40;;;1.00;;
315;SDS011;14128;48.686;9.738;2022-09-09T09:10:04;2.13;;;0.93;;
315;SDS011;14128;48.686;9.738;2022-09-09T09:12:40;3.00;;;0.80;;
315;SDS011;14128;48.686;9.738;2022-09-09T09:15:11;2.97;;;0.87;;
315;SDS011;14128;48.686;9.738;2022-09-09T09:17:43;4.93;;;0.90;;
315;SDS011;14128;48.686;9.738;2022-09-09T09:20:12;2.20;;;1.00;;
315;SDS011;14128;48.686;9.738;2022-09-09T09:22:42;2.53;;;0.80;;
315;SDS011;14128;48.686;9.738;2022-09-09T09:25:15;1.03;;;0.60;;
315;SDS011;14128;48.686;9.738;2022-09-09T09:27:49;6.70;;;1.00;;
315;SDS011;14128;48.686;9.738;2022-09-09T09:30:23;4.40;;;0.80;;
315;SDS011;14128;48.686;9.738;2022-09-09T09:32:53;4.77;;;1.03;;
315;SDS011;14128;48.686;9.738;2022-09-09T09:35:23;7.73;;;1.40;;
315;SDS011;14128;48.686;9.738;2022-09-09T09:37:50;3.00;;;0.87;;
315;SDS011;14128;48.686;9.738;2022-09-09T09:40:18;2.93;;;1.00;;
315;SDS011;14128;48.686;9.738;2022-09-09T09:42:53;2.33;;;1.30;;
315;SDS011;14128;48.686;9.738;2022-09-09T09:45:25;3.10;;;0.80;;
315;SDS011;14128;48.686;9.738;2022-09-09T09:47:59;2.50;;;0.60;;
315;SDS011;14128;48.686;9.738;2022-09-09T09:50:28;2.97;;;0.90;;
315;SDS011;14128;48.686;9.738;2022-09-09T09:52:56;2.13;;;0.90;;
315;SDS011;14128;48.686;9.738;2022-09-09T09:55:25;2.37;;;0.70;;
315;SDS011;14128;48.686;9.738;2022-09-09T09:58:01;4.07;;;0.93;;
315;SDS011;14128;48.686;9.738;2022-09-09T10:00:29;1.60;;;0.90;;
315;SDS011;14128;48.686;9.738;2022-09-09T10:02:56;1.50;;;0.70;;
315;SDS011;14128;48.686;9.738;2022-09-09T10:05:23;1.40;;;0.70;;
315;SDS011;14128;48.686;9.738;2022-09-09T10:08:01;6.13;;;1.17;;
315;SDS011;14128;48.686;9.738;2022-09-09T10:10:34;3.43;;;0.70;;
315;SDS011;14128;48.686;9.738;2022-09-09T10:13:11;3.47;;;0.97;;
315;SDS011;14128;48.686;9.738;2022-09-09T10:15:47;2.57;;;0.70;;
315;SDS011;14128;48.686;9.738;2022-09-09T10:18:24;2.53;;;1.00;;
315;SDS011;14128;48.686;9.738;2022-09-09T10:21:20;2.73;;;1.33;;
315;SDS011;14128;48.686;9.738;2022-09-09T10:24:23;2.70;;;0.87;;
315;SDS011;14128;48.686;9.738;2022-09-09T10:27:11;2.57;;;1.20;;
315;SDS011;14128;48.686;9.738;2022-09-09T10:29:51;1.43;;;0.70;;
315;SDS011;14128;48.686;9.738;2022-09-09T10:32:37;6.27;;;1.20;;
315;SDS011;14128;48.686;9.738;2022-09-09T10:35:12;6.30;;;1.27;;
315;SDS011;14128;48.686;9.738;2022-09-09T10:40:43;2.80;;;0.73;;
315;SDS011;14128;48.686;9.738;2022-09-09T10:43:28;7.20;;;1.47;;
315;SDS011;14128;48.686;9.738;2022-09-09T10:46:08;2.23;;;0.70;;
315;SDS011;14128;48.686;9.738;2022-09-09T10:48:45;1.90;;;0.57;;
315;SDS011;14128;48.686;9.738;2022-09-09T10:51:23;6.60;;;1.33;;
315;SDS011;14128;48.686;9.738;2022-09-09T10:54:03;3.00;;;0.60;;
315;SDS011;14128;48.686;9.738;2022-09-09T10:56:49;2.73;;;0.60;;
315;SDS011;14128;48.686;9.738;2022-09-09T10:59:22;5.60;;;1.23;;
315;SDS011;14128;48.686;9.738;2022-09-09T11:01:53;5.80;;;1.07;;
315;SDS011;14128;48.686;9.738;2022-09-09T11:04:27;1.97;;;0.80;;
315;SDS011;14128;48.686;9.738;2022-09-09T11:06:59;5.07;;;1.17;;
315;SDS011;14128;48.686;9.738;2022-09-09T11:09:34;1.23;;;0.57;;
315;SDS011;14128;48.686;9.738;2022-09-09T11:12:05;3.80;;;0.80;;
315;SDS011;14128;48.686;9.738;2022-09-09T11:14:40;3.37;;;0.83;;
315;SDS011;14128;48.686;9.738;2022-09-09T11:17:12;3.20;;;0.50;;
315;SDS011;14128;48.686;9.738;2022-09-09T11:19:43;2.60;;;0.40;;
315;SDS011;14128;48.686;9.738;2022-09-09T11:22:15;1.63;;;0.67;;
315;SDS011;14128;48.686;9.738;2022-09-09T11:24:49;1.90;;;0.80;;
315;SDS011;14128;48.686;9.738;2022-09-09T11:27:21;4.70;;;1.07;;
315;SDS011;14128;48.686;9.738;2022-09-09T11:32:53;4.47;;;0.50;;
315;SDS011;14128;48.686;9.738;2022-09-09T11:35:37;4.37;;;1.30;;
315;SDS011;14128;48.686;9.738;2022-09-09T11:38:21;4.83;;;0.60;;
315;SDS011;14128;48.686;9.738;2022-09-09T11:40:59;3.37;;;1.00;;
315;SDS011;14128;48.686;9.738;2022-09-09T11:43:30;3.03;;;0.60;;
315;SDS011;14128;48.686;9.738;2022-09-09T11:45:59;2.53;;;0.70;;
315;SDS011;14128;48.686;9.738;2022-09-09T11:48:32;2.00;;;0.50;;
315;SDS011;14128;48.686;9.738;2022-09-09T11:51:01;2.77;;;0.40;;
315;SDS011;14128;48.686;9.738;2022-09-09T11:53:32;5.97;;;0.80;;
315;SDS011;14128;48.686;9.738;2022-09-09T11:56:07;2.30;;;0.47;;
315;SDS011;14128;48.686;9.738;2022-09-09T11:58:38;1.03;;;0.47;;
315;SDS011;14128;48.686;9.738;2022-09-09T12:01:13;3.47;;;0.70;;
315;SDS011;14128;48.686;9.738;2022-09-09T12:04:04;6.90;;;0.60;;
315;SDS011;14128;48.686;9.738;2022-09-09T12:06:54;3.63;;;0.83;;
315;SDS011;14128;48.686;9.738;2022-09-09T12:09:28;1.23;;;0.50;;
315;SDS011;14128;48.686;9.738;2022-09-09T12:12:07;1.83;;;0.53;;
315;SDS011;14128;48.686;9.738;2022-09-09T12:14:55;5.57;;;1.57;;
315;SDS011;14128;48.686;9.738;2022-09-09T12:17:41;2.50;;;0.60;;
315;SDS011;14128;48.686;9.738;2022-09-09T12:20:12;3.23;;;0.90;;
315;SDS011;14128;48.686;9.738;2022-09-09T12:22:44;4.07;;;1.07;;
315;SDS011;14128;48.686;9.738;2022-09-09T12:25:32;2.73;;;1.20;;
315;SDS011;14128;48.686;9.738;2022-09-09T12:28:06;3.70;;;1.20;;
315;SDS011;14128;48.686;9.738;2022-09-09T12:30:41;1.60;;;0.50;;
315;SDS011;14128;48.686;9.738;2022-09-09T12:33:17;2.20;;;0.50;;
315;SDS011;14128;48.686;9.738;2022-09-09T12:35:48;2.70;;;0.63;;
315;SDS011;14128;48.686;9.738;2022-09-09T12:38:22;1.97;;;0.50;;
315;SDS011;14128;48.686;9.738;2022-09-09T12:40:56;1.27;;;0.50;;
315;SDS011;14128;48.686;9.738;2022-09-09T12:43:24;1.73;;;0.40;;
315;SDS011;14128;48.686;9.738;2022-09-09T12:45:53;1.63;;;0.40;;
315;SDS011;14128;48.686;9.738;2022-09-09T12:48:25;2.20;;;0.50;;
315;SDS011;14128;48.686;9.738;2022-09-09T12:50:58;1.27;;;0.80;;
315;SDS011;14128;48.686;9.738;2022-09-09T12:53:26;2.83;;;0.50;;
315;SDS011;14128;48.686;9.738;2022-09-09T12:55:57;1.80;;;0.50;;
315;SDS011;14128;48.686;9.738;2022-09-09T12:58:25;4.63;;;0.60;;
315;SDS011;14128;48.686;9.738;2022-09-09T13:00:57;1.03;;;0.30;;
315;SDS011;14128;48.686;9.738;2022-09-09T13:03:25;1.20;;;0.40;;
315;SDS011;14128;48.686;9.738;2022-09-09T13:05:53;1.63;;;0.37;;
315;SDS011;14128;48.686;9.738;2022-09-09T13:08:26;0.70;;;0.30;;
315;SDS011;14128;48.686;9.738;2022-09-09T13:10:54;3.63;;;0.93;;
315;SDS011;14128;48.686;9.738;2022-09-09T13:13:26;2.60;;;0.50;;
315;SDS011;14128;48.686;9.738;2022-09-09T13:15:56;0.80;;;0.30;;
315;SDS011;14128;48.686;9.738;2022-09-09T13:18:25;2.60;;;0.80;;
315;SDS011;14128;48.686;9.738;2022-09-09T13:20:54;1.50;;;0.60;;
315;SDS011;14128;48.686;9.738;2022-09-09T13:23:23;2.67;;;0.40;;
315;SDS011;14128;48.686;9.738;2022-09-09T13:25:54;1.27;;;0.47;;
315;SDS011;14128;48.686;9.738;2022-09-09T13:28:23;2.30;;;0.40;;
315;SDS011;14128;48.686;9.738;2022-09-09T13:30:55;1.33;;;0.67;;
315;SDS011;14128;48.686;9.738;2022-09-09T13:33:29;4.53;;;0.77;;
315;SDS011;14128;48.686;9.738;2022-09-09T13:35:58;1.33;;;0.40;;
315;SDS011;14128;48.686;9.738;2022-09-09T13:38:29;3.70;;;0.40;;
315;SDS011;14128;48.686;9.738;2022-09-09T13:41:00;1.90;;;0.60;;
315;SDS011;14128;48.686;9.738;2022-09-09T13:43:29;3.50;;;0.47;;
315;SDS011;14128;48.686;9.738;2022-09-09T13:46:00;1.40;;;0.53;;
315;SDS011;14128;48.686;9.738;2022-09-09T13:48:29;1.27;;;0.57;;
315;SDS011;14128;48.686;9.738;2022-09-09T13:50:57;1.23;;;0.50;;
315;SDS011;14128;48.686;9.738;2022-09-09T13:53:25;1.90;;;0.50;;
315;SDS011;14128;48.686;9.738;2022-09-09T13:55:53;1.07;;;0.30;;
315;SDS011;14128;48.686;9.738;2022-09-09T13:58:23;0.70;;;0.50;;
315;SDS011;14128;48.686;9.738;2022-09-09T14:00:51;0.70;;;0.43;;
315;SDS011;14128;48.686;9.738;2022-09-09T14:03:18;2.00;;;0.30;;
315;SDS011;14128;48.686;9.738;2022-09-09T14:05:46;3.57;;;0.40;;
315;SDS011;14128;48.686;9.738;2022-09-09T14:08:20;3.50;;;0.60;;
315;SDS011;14128;48.686;9.738;2022-09-09T14:10:50;0.80;;;0.30;;
315;SDS011;14128;48.686;9.738;2022-09-09T14:13:17;3.93;;;0.47;;
315;SDS011;14128;48.686;9.738;2022-09-09T14:15:47;2.60;;;0.53;;
315;SDS011;14128;48.686;9.738;2022-09-09T14:18:15;2.00;;;0.67;;
315;SDS011;14128;48.686;9.738;2022-09-09T14:20:42;2.77;;;0.60;;
315;SDS011;14128;48.686;9.738;2022-09-09T14:23:10;1.63;;;0.60;;
315;SDS011;14128;48.686;9.738;2022-09-09T14:25:41;2.60;;;0.53;;
315;SDS011;14128;48.686;9.738;2022-09-09T14:28:09;2.10;;;0.90;;
315;SDS011;14128;48.686;9.738;2022-09-09T14:30:37;1.30;;;0.57;;
315;SDS011;14128;48.686;9.738;2022-09-09T14:33:08;5.20;;;1.03;;
315;SDS011;14128;48.686;9.738;2022-09-09T14:35:37;1.63;;;0.40;;
315;SDS011;14128;48.686;9.738;2022-09-09T14:38:07;1.13;;;0.40;;
315;SDS011;14128;48.686;9.738;2022-09-09T14:40:35;4.07;;;0.53;;
315;SDS011;14128;48.686;9.738;2022-09-09T14:43:02;8.43;;;0.50;;
315;SDS011;14128;48.686;9.738;2022-09-09T14:45:30;1.47;;;0.30;;
315;SDS011;14128;48.686;9.738;2022-09-09T14:47:57;1.67;;;0.70;;
315;SDS011;14128;48.686;9.738;2022-09-09T14:50:26;1.53;;;0.50;;
315;SDS011;14128;48.686;9.738;2022-09-09T14:52:53;2.40;;;0.60;;
315;SDS011;14128;48.686;9.738;2022-09-09T14:55:20;1.60;;;0.50;;
315;SDS011;14128;48.686;9.738;2022-09-09T14:57:47;4.83;;;1.33;;
315;SDS011;14128;48.686;9.738;2022-09-09T15:00:14;2.40;;;0.50;;
315;SDS011;14128;48.686;9.738;2022-09-09T15:02:41;1.77;;;0.50;;
315;SDS011;14128;48.686;9.738;2022-09-09T15:05:08;0.93;;;0.43;;
315;SDS011;14128;48.686;9.738;2022-09-09T15:07:37;5.30;;;0.63;;
315;SDS011;14128;48.686;9.738;2022-09-09T15:10:04;1.67;;;0.40;;
315;SDS011;14128;48.686;9.738;2022-09-09T15:12:31;1.83;;;0.40;;
315;SDS011;14128;48.686;9.738;2022-09-09T15:15:00;1.50;;;0.30;;
315;SDS011;14128;48.686;9.738;2022-09-09T15:17:27;1.27;;;0.43;;
315;SDS011;14128;48.686;9.738;2022-09-09T15:19:54;0.70;;;0.40;;
315;SDS011;14128;48.686;9.738;2022-09-09T15:22:21;2.07;;;0.40;;
315;SDS011;14128;48.686;9.738;2022-09-09T15:24:50;1.53;;;0.40;;
315;SDS011;14128;48.686;9.738;2022-09-09T15:27:17;1.13;;;0.47;;
315;SDS011;14128;48.686;9.738;2022-09-09T15:29:44;1.10;;;0.50;;
315;SDS011;14128;48.686;9.738;2022-09-09T15:32:11;1.73;;;0.70;;
315;SDS011;14128;48.686;9.738;2022-09-09T15:34:38;3.03;;;1.30;;
315;SDS011;14128;48.686;9.738;2022-09-09T15:37:06;8.70;;;2.00;;
315;SDS011;14128;48.686;9.738;2022-09-09T15:39:35;2.57;;;0.80;;
315;SDS011;14128;48.686;9.738;2022-09-09T15:42:04;7.23;;;0.80;;